sensor_id;sensor_type;location;lat;lon;timestamp;pressure;altitude;pressure_sealevel;temperature;humidity
7335;BME280;3708;42.632;23.378;2023-04-25T00:00:20;93600.66;;;14.01;66.54
7335;BME280;3708;42.632;23.378;2023-04-25T00:02:47;93597.41;;;14.37;65.39
7335;BME280;3708;42.632;23.378;2023-04-25T00:05:14;93586.09;;;14.67;64.94
7335;BME280;3708;42.632;23.378;2023-04-25T00:07:41;93580.19;;;14.77;63.97
7335;BME280;3708;42.632;23.378;2023-04-25T00:10:10;93578.16;;;15.00;64.04
7335;BME280;3708;42.632;23.378;2023-04-25T00:12:37;93572.63;;;15.12;63.60
7335;BME280;3708;42.632;23.378;2023-04-25T00:15:05;93564.38;;;15.13;63.16
7335;BME280;3708;42.632;23.378;2023-04-25T00:17:32;93556.22;;;14.89;64.18
7335;BME280;3708;42.632;23.378;2023-04-25T00:20:00;93559.84;;;14.77;64.97
7335;BME280;3708;42.632;23.378;2023-04-25T00:22:30;93562.53;;;14.81;64.97
7335;BME280;3708;42.632;23.378;2023-04-25T00:24:57;93554.16;;;14.72;65.70
7335;BME280;3708;42.632;23.378;2023-04-25T00:27:26;93542.63;;;14.87;65.42
7335;BME280;3708;42.632;23.378;2023-04-25T00:29:53;93536.66;;;14.90;65.21
7335;BME280;3708;42.632;23.378;2023-04-25T00:32:20;93535.50;;;14.91;65.03
7335;BME280;3708;42.632;23.378;2023-04-25T00:34:47;93530.53;;;14.82;65.29
7335;BME280;3708;42.632;23.378;2023-04-25T00:37:14;93523.41;;;14.86;64.87
7335;BME280;3708;42.632;23.378;2023-04-25T00:39:41;93508.66;;;14.78;64.75
7335;BME280;3708;42.632;23.378;2023-04-25T00:42:08;93516.06;;;14.66;64.83
7335;BME280;3708;42.632;23.378;2023-04-25T00:44:37;93509.88;;;14.51;65.10
7335;BME280;3708;42.632;23.378;2023-04-25T00:47:04;93498.59;;;14.54;65.16
7335;BME280;3708;42.632;23.378;2023-04-25T00:49:31;93500.91;;;14.56;65.39
7335;BME280;3708;42.632;23.378;2023-04-25T00:51:58;93502.38;;;14.53;65.27
7335;BME280;3708;42.632;23.378;2023-04-25T00:54:25;93495.63;;;14.56;65.27
7335;BME280;3708;42.632;23.378;2023-04-25T00:56:52;93494.91;;;14.62;65.19
7335;BME280;3708;42.632;23.378;2023-04-25T00:59:19;93498.78;;;14.72;65.06
7335;BME280;3708;42.632;23.378;2023-04-25T01:01:48;93494.75;;;14.81;65.01
7335;BME280;3708;42.632;23.378;2023-04-25T01:04:15;93492.63;;;14.97;64.59
7335;BME280;3708;42.632;23.378;2023-04-25T01:06:42;93490.81;;;15.05;64.42
7335;BME280;3708;42.632;23.378;2023-04-25T01:09:09;93484.38;;;14.62;64.50
7335;BME280;3708;42.632;23.378;2023-04-25T01:11:36;93476.75;;;14.53;64.26
7335;BME280;3708;42.632;23.378;2023-04-25T01:14:05;93485.13;;;14.63;64.52
7335;BME280;3708;42.632;23.378;2023-04-25T01:16:32;93484.06;;;14.67;64.55
7335;BME280;3708;42.632;23.378;2023-04-25T01:19:01;93472.94;;;14.47;64.28
7335;BME280;3708;42.632;23.378;2023-04-25T01:21:29;93456.25;;;14.36;64.73
7335;BME280;3708;42.632;23.378;2023-04-25T01:23:56;93460.09;;;14.42;64.64
7335;BME280;3708;42.632;23.378;2023-04-25T01:26:24;93458.56;;;14.41;65.32
7335;BME280;3708;42.632;23.378;2023-04-25T01:28:51;93448.13;;;14.48;64.62
7335;BME280;3708;42.632;23.378;2023-04-25T01:31:18;93458.09;;;14.32;64.43
7335;BME280;3708;42.632;23.378;2023-04-25T01:33:46;93475.16;;;14.45;64.64
7335;BME280;3708;42.632;23.378;2023-04-25T01:36:13;93478.22;;;14.47;64.65
7335;BME280;3708;42.632;23.378;2023-04-25T01:38:42;93477.78;;;14.42;64.03
7335;BME280;3708;42.632;23.378;2023-04-25T01:41:11;93465.97;;;14.29;64.76
7335;BME280;3708;42.632;23.378;2023-04-25T01:43:38;93470.75;;;14.53;64.32
7335;BME280;3708;42.632;23.378;2023-04-25T01:46:05;93463.28;;;14.62;64.21
7335;BME280;3708;42.632;23.378;2023-04-25T01:48:32;93477.09;;;14.48;63.80
7335;BME280;3708;42.632;23.378;2023-04-25T01:50:59;93485.91;;;14.00;65.45
7335;BME280;3708;42.632;23.378;2023-04-25T01:53:26;93486.78;;;13.52;67.22
7335;BME280;3708;42.632;23.378;2023-04-25T01:55:54;93482.84;;;13.16;68.26
7335;BME280;3708;42.632;23.378;2023-04-25T01:58:21;93488.69;;;13.55;67.47
7335;BME280;3708;42.632;23.378;2023-04-25T02:00:48;93481.84;;;13.24;67.79
7335;BME280;3708;42.632;23.378;2023-04-25T02:03:15;93480.72;;;13.02;68.92
7335;BME280;3708;42.632;23.378;2023-04-25T02:05:41;93491.22;;;13.02;69.47
7335;BME280;3708;42.632;23.378;2023-04-25T02:08:08;93487.38;;;12.96;70.04
7335;BME280;3708;42.632;23.378;2023-04-25T02:10:35;93499.13;;;13.02;69.58
7335;BME280;3708;42.632;23.378;2023-04-25T02:13:04;93479.72;;;12.65;71.56
7335;BME280;3708;42.632;23.378;2023-04-25T02:15:31;93478.06;;;13.22;70.36
7335;BME280;3708;42.632;23.378;2023-04-25T02:17:58;93478.06;;;13.48;69.44
7335;BME280;3708;42.632;23.378;2023-04-25T02:20:25;93446.72;;;13.65;68.84
7335;BME280;3708;42.632;23.378;2023-04-25T02:22:53;93461.28;;;13.56;68.28
7335;BME280;3708;42.632;23.378;2023-04-25T02:25:20;93461.09;;;12.96;69.95
7335;BME280;3708;42.632;23.378;2023-04-25T02:27:47;93453.81;;;13.61;68.59
7335;BME280;3708;42.632;23.378;2023-04-25T02:30:15;93449.22;;;13.85;67.82
7335;BME280;3708;42.632;23.378;2023-04-25T02:32:42;93443.47;;;14.05;67.01
7335;BME280;3708;42.632;23.378;2023-04-25T02:35:09;93439.56;;;14.25;66.67
7335;BME280;3708;42.632;23.378;2023-04-25T02:37:38;93436.03;;;14.47;65.98
7335;BME280;3708;42.632;23.378;2023-04-25T02:40:06;93440.69;;;14.58;65.31
7335;BME280;3708;42.632;23.378;2023-04-25T02:42:33;93438.47;;;14.63;64.61
7335;BME280;3708;42.632;23.378;2023-04-25T02:45:00;93435.16;;;14.73;63.83
7335;BME280;3708;42.632;23.378;2023-04-25T02:47:28;93443.34;;;14.61;63.77
7335;BME280;3708;42.632;23.378;2023-04-25T02:49:55;93445.97;;;14.61;63.75
7335;BME280;3708;42.632;23.378;2023-04-25T02:52:21;93442.56;;;14.57;63.82
7335;BME280;3708;42.632;23.378;2023-04-25T02:54:48;93435.13;;;14.66;63.83
7335;BME280;3708;42.632;23.378;2023-04-25T02:57:15;93428.97;;;14.55;63.73
7335;BME280;3708;42.632;23.378;2023-04-25T02:59:42;93426.50;;;14.73;63.24
7335;BME280;3708;42.632;23.378;2023-04-25T03:02:09;93433.75;;;14.83;62.81
7335;BME280;3708;42.632;23.378;2023-04-25T03:04:37;93428.94;;;14.51;62.70
7335;BME280;3708;42.632;23.378;2023-04-25T03:07:04;93420.97;;;14.44;63.15
7335;BME280;3708;42.632;23.378;2023-04-25T03:09:31;93421.69;;;14.41;63.27
7335;BME280;3708;42.632;23.378;2023-04-25T03:11:58;93423.94;;;14.39;63.51
7335;BME280;3708;42.632;23.378;2023-04-25T03:14:24;93420.94;;;14.41;63.59
7335;BME280;3708;42.632;23.378;2023-04-25T03:16:51;93414.75;;;14.63;63.66
7335;BME280;3708;42.632;23.378;2023-04-25T03:19:18;93416.75;;;14.77;63.33
7335;BME280;3708;42.632;23.378;2023-04-25T03:21:47;93416.84;;;14.87;63.24
7335;BME280;3708;42.632;23.378;2023-04-25T03:24:14;93410.75;;;14.80;62.72
7335;BME280;3708;42.632;23.378;2023-04-25T03:26:41;93412.63;;;13.72;65.33
7335;BME280;3708;42.632;23.378;2023-04-25T03:29:07;93417.78;;;13.95;65.33
7335;BME280;3708;42.632;23.378;2023-04-25T03:31:34;93421.91;;;13.93;65.23
7335;BME280;3708;42.632;23.378;2023-04-25T03:34:01;93422.16;;;14.17;64.85
7335;BME280;3708;42.632;23.378;2023-04-25T03:36:28;93417.38;;;14.26;64.79
7335;BME280;3708;42.632;23.378;2023-04-25T03:38:56;93411.19;;;14.45;64.77
7335;BME280;3708;42.632;23.378;2023-04-25T03:41:23;93418.78;;;14.53;64.57
7335;BME280;3708;42.632;23.378;2023-04-25T03:43:50;93424.19;;;14.64;64.29
7335;BME280;3708;42.632;23.378;2023-04-25T03:46:17;93427.25;;;14.33;63.96
7335;BME280;3708;42.632;23.378;2023-04-25T03:48:44;93432.31;;;14.48;64.06
7335;BME280;3708;42.632;23.378;2023-04-25T03:51:11;93427.81;;;14.49;63.96
7335;BME280;3708;42.632;23.378;2023-04-25T03:53:37;93415.63;;;14.37;63.59
7335;BME280;3708;42.632;23.378;2023-04-25T03:56:06;93413.31;;;13.99;65.18
7335;BME280;3708;42.632;23.378;2023-04-25T03:58:33;93414.22;;;14.14;65.51
7335;BME280;3708;42.632;23.378;2023-04-25T04:01:00;93413.41;;;14.43;64.76
7335;BME280;3708;42.632;23.378;2023-04-25T04:03:28;93402.63;;;14.55;64.67
7335;BME280;3708;42.632;23.378;2023-04-25T04:05:55;93410.94;;;14.57;64.43
7335;BME280;3708;42.632;23.378;2023-04-25T04:08:21;93409.19;;;14.75;64.52
7335;BME280;3708;42.632;23.378;2023-04-25T04:10:48;93412.91;;;14.30;65.31
7335;BME280;3708;42.632;23.378;2023-04-25T04:13:16;93412.94;;;13.97;65.96
7335;BME280;3708;42.632;23.378;2023-04-25T04:15:43;93418.03;;;13.87;66.52
7335;BME280;3708;42.632;23.378;2023-04-25T04:18:10;93427.44;;;13.84;66.87
7335;BME280;3708;42.632;23.378;2023-04-25T04:20:37;93418.19;;;13.97;66.69
7335;BME280;3708;42.632;23.378;2023-04-25T04:23:04;93425.91;;;14.16;66.42
7335;BME280;3708;42.632;23.378;2023-04-25T04:25:31;93411.47;;;14.36;65.87
7335;BME280;3708;42.632;23.378;2023-04-25T04:27:58;93423.41;;;14.27;65.94
7335;BME280;3708;42.632;23.378;2023-04-25T04:30:27;93421.97;;;14.00;66.35
7335;BME280;3708;42.632;23.378;2023-04-25T04:32:56;93425.00;;;14.35;66.15
7335;BME280;3708;42.632;23.378;2023-04-25T04:35:23;93421.59;;;14.31;66.57
7335;BME280;3708;42.632;23.378;2023-04-25T04:37:50;93425.50;;;13.81;68.00
7335;BME280;3708;42.632;23.378;2023-04-25T04:40:17;93430.81;;;14.18;66.94
7335;BME280;3708;42.632;23.378;2023-04-25T04:42:45;93434.38;;;14.32;67.21
7335;BME280;3708;42.632;23.378;2023-04-25T04:45:12;93428.50;;;14.46;66.73
7335;BME280;3708;42.632;23.378;2023-04-25T04:47:40;93432.94;;;14.38;66.94
7335;BME280;3708;42.632;23.378;2023-04-25T04:50:07;93420.03;;;14.67;66.59
7335;BME280;3708;42.632;23.378;2023-04-25T04:52:35;93416.00;;;14.76;66.17
7335;BME280;3708;42.632;23.378;2023-04-25T04:55:03;93418.94;;;14.71;65.30
7335;BME280;3708;42.632;23.378;2023-04-25T04:57:30;93426.75;;;14.61;65.91
7335;BME280;3708;42.632;23.378;2023-04-25T04:59:58;93425.84;;;14.42;65.27
7335;BME280;3708;42.632;23.378;2023-04-25T05:02:25;93434.69;;;13.94;66.81
7335;BME280;3708;42.632;23.378;2023-04-25T05:04:53;93432.69;;;13.84;67.63
7335;BME280;3708;42.632;23.378;2023-04-25T05:07:20;93430.31;;;14.05;66.81
7335;BME280;3708;42.632;23.378;2023-04-25T05:09:47;93444.75;;;14.18;66.46
7335;BME280;3708;42.632;23.378;2023-04-25T05:12:13;93444.06;;;14.25;66.22
7335;BME280;3708;42.632;23.378;2023-04-25T05:14:40;93458.59;;;14.45;66.05
7335;BME280;3708;42.632;23.378;2023-04-25T05:17:07;93454.06;;;13.79;66.99
7335;BME280;3708;42.632;23.378;2023-04-25T05:19:34;93444.75;;;14.18;66.04
7335;BME280;3708;42.632;23.378;2023-04-25T05:22:02;93459.28;;;14.05;66.54
7335;BME280;3708;42.632;23.378;2023-04-25T05:24:29;93465.25;;;14.02;66.39
7335;BME280;3708;42.632;23.378;2023-04-25T05:26:57;93455.31;;;14.22;66.00
7335;BME280;3708;42.632;23.378;2023-04-25T05:29:24;93451.06;;;14.43;65.43
7335;BME280;3708;42.632;23.378;2023-04-25T05:31:50;93460.25;;;14.60;65.01
7335;BME280;3708;42.632;23.378;2023-04-25T05:34:18;93456.34;;;14.43;63.80
7335;BME280;3708;42.632;23.378;2023-04-25T05:36:45;93457.88;;;14.48;64.44
7335;BME280;3708;42.632;23.378;2023-04-25T05:39:15;93452.75;;;14.62;63.66
7335;BME280;3708;42.632;23.378;2023-04-25T05:41:42;93454.88;;;14.49;63.96
7335;BME280;3708;42.632;23.378;2023-04-25T05:44:09;93455.47;;;14.32;65.42
7335;BME280;3708;42.632;23.378;2023-04-25T05:46:36;93462.72;;;14.79;64.49
7335;BME280;3708;42.632;23.378;2023-04-25T05:49:03;93460.59;;;14.95;64.48
7335;BME280;3708;42.632;23.378;2023-04-25T05:51:30;93463.72;;;15.08;63.82
7335;BME280;3708;42.632;23.378;2023-04-25T05:53:56;93462.69;;;15.23;63.53
7335;BME280;3708;42.632;23.378;2023-04-25T05:56:25;93464.41;;;15.45;62.99
7335;BME280;3708;42.632;23.378;2023-04-25T05:58:52;93460.34;;;15.58;62.21
7335;BME280;3708;42.632;23.378;2023-04-25T06:01:19;93462.38;;;15.32;61.67
7335;BME280;3708;42.632;23.378;2023-04-25T06:03:46;93459.50;;;15.44;61.98
7335;BME280;3708;42.632;23.378;2023-04-25T06:06:12;93467.16;;;15.63;61.68
7335;BME280;3708;42.632;23.378;2023-04-25T06:08:39;93468.38;;;15.83;61.28
7335;BME280;3708;42.632;23.378;2023-04-25T06:11:06;93464.34;;;15.99;60.88
7335;BME280;3708;42.632;23.378;2023-04-25T06:13:34;93464.41;;;16.17;60.44
7335;BME280;3708;42.632;23.378;2023-04-25T06:16:01;93453.25;;;15.69;59.79
7335;BME280;3708;42.632;23.378;2023-04-25T06:18:28;93460.06;;;15.74;59.47
7335;BME280;3708;42.632;23.378;2023-04-25T06:20:55;93462.72;;;15.81;59.78
7335;BME280;3708;42.632;23.378;2023-04-25T06:23:22;93464.34;;;15.99;59.25
7335;BME280;3708;42.632;23.378;2023-04-25T06:25:49;93464.69;;;15.94;58.85
7335;BME280;3708;42.632;23.378;2023-04-25T06:28:16;93453.44;;;16.12;58.87
7335;BME280;3708;42.632;23.378;2023-04-25T06:30:44;93463.66;;;16.17;59.63
7335;BME280;3708;42.632;23.378;2023-04-25T06:33:11;93471.28;;;16.32;59.88
7335;BME280;3708;42.632;23.378;2023-04-25T06:35:37;93475.44;;;16.44;59.31
7335;BME280;3708;42.632;23.378;2023-04-25T06:38:04;93468.25;;;16.34;58.30
7335;BME280;3708;42.632;23.378;2023-04-25T06:40:31;93472.81;;;16.40;58.52
7335;BME280;3708;42.632;23.378;2023-04-25T06:42:58;93464.81;;;16.19;58.59
7335;BME280;3708;42.632;23.378;2023-04-25T06:45:24;93466.41;;;16.45;58.45
7335;BME280;3708;42.632;23.378;2023-04-25T06:47:52;93471.00;;;16.62;58.29
7335;BME280;3708;42.632;23.378;2023-04-25T06:50:19;93473.94;;;16.46;57.84
7335;BME280;3708;42.632;23.378;2023-04-25T06:52:46;93478.94;;;16.62;57.92
7335;BME280;3708;42.632;23.378;2023-04-25T06:55:13;93473.69;;;16.83;57.44
7335;BME280;3708;42.632;23.378;2023-04-25T06:57:40;93475.09;;;16.45;58.01
7335;BME280;3708;42.632;23.378;2023-04-25T07:00:08;93480.31;;;16.35;57.90
7335;BME280;3708;42.632;23.378;2023-04-25T07:02:35;93473.06;;;16.14;59.62
7335;BME280;3708;42.632;23.378;2023-04-25T07:05:03;93472.09;;;16.50;58.87
7335;BME280;3708;42.632;23.378;2023-04-25T07:07:31;93480.84;;;16.72;58.65
7335;BME280;3708;42.632;23.378;2023-04-25T07:09:57;93476.72;;;16.92;58.47
7335;BME280;3708;42.632;23.378;2023-04-25T07:12:24;93473.31;;;16.88;57.65
7335;BME280;3708;42.632;23.378;2023-04-25T07:14:51;93464.66;;;17.26;57.21
7335;BME280;3708;42.632;23.378;2023-04-25T07:17:18;93470.72;;;17.55;56.81
7335;BME280;3708;42.632;23.378;2023-04-25T07:19:44;93480.53;;;17.62;56.43
7335;BME280;3708;42.632;23.378;2023-04-25T07:22:13;93488.09;;;17.35;54.96
7335;BME280;3708;42.632;23.378;2023-04-25T07:24:39;93469.94;;;17.55;55.04
7335;BME280;3708;42.632;23.378;2023-04-25T07:27:06;93469.94;;;17.55;55.46
7335;BME280;3708;42.632;23.378;2023-04-25T07:29:33;93471.81;;;17.36;55.26
7335;BME280;3708;42.632;23.378;2023-04-25T07:32:02;93475.22;;;17.19;55.38
7335;BME280;3708;42.632;23.378;2023-04-25T07:34:29;93467.94;;;16.53;57.34
7335;BME280;3708;42.632;23.378;2023-04-25T07:36:57;93462.13;;;16.16;58.61
7335;BME280;3708;42.632;23.378;2023-04-25T07:39:26;93471.78;;;15.83;59.27
7335;BME280;3708;42.632;23.378;2023-04-25T07:41:53;93472.75;;;16.33;58.52
7335;BME280;3708;42.632;23.378;2023-04-25T07:44:20;93469.53;;;17.00;57.21
7335;BME280;3708;42.632;23.378;2023-04-25T07:46:47;93461.97;;;17.40;56.53
7335;BME280;3708;42.632;23.378;2023-04-25T07:49:13;93461.25;;;17.50;56.41
7335;BME280;3708;42.632;23.378;2023-04-25T07:51:40;93458.19;;;17.80;56.20
7335;BME280;3708;42.632;23.378;2023-04-25T07:54:08;93455.19;;;17.53;56.48
7335;BME280;3708;42.632;23.378;2023-04-25T07:56:37;93451.41;;;17.55;55.03
7335;BME280;3708;42.632;23.378;2023-04-25T07:59:03;93454.44;;;17.60;55.04
7335;BME280;3708;42.632;23.378;2023-04-25T08:01:30;93461.63;;;17.14;55.99
7335;BME280;3708;42.632;23.378;2023-04-25T08:03:57;93452.91;;;17.41;56.24
7335;BME280;3708;42.632;23.378;2023-04-25T08:06:24;93454.78;;;17.80;55.66
7335;BME280;3708;42.632;23.378;2023-04-25T08:08:51;93458.50;;;18.00;55.14
7335;BME280;3708;42.632;23.378;2023-04-25T08:11:17;93455.28;;;18.51;54.36
7335;BME280;3708;42.632;23.378;2023-04-25T08:13:46;93448.94;;;18.27;53.90
7335;BME280;3708;42.632;23.378;2023-04-25T08:16:12;93454.22;;;18.27;53.14
7335;BME280;3708;42.632;23.378;2023-04-25T08:18:39;93463.81;;;18.00;53.48
7335;BME280;3708;42.632;23.378;2023-04-25T08:21:06;93449.09;;;18.75;52.88
7335;BME280;3708;42.632;23.378;2023-04-25T08:23:34;93458.72;;;19.10;53.02
7335;BME280;3708;42.632;23.378;2023-04-25T08:26:01;93449.88;;;18.75;51.92
7335;BME280;3708;42.632;23.378;2023-04-25T08:28:27;93450.72;;;19.17;49.94
7335;BME280;3708;42.632;23.378;2023-04-25T08:30:56;93434.59;;;19.82;49.59
7335;BME280;3708;42.632;23.378;2023-04-25T08:33:23;93439.88;;;20.19;48.46
7335;BME280;3708;42.632;23.378;2023-04-25T08:35:49;93430.19;;;20.36;49.86
7335;BME280;3708;42.632;23.378;2023-04-25T08:38:16;93431.84;;;19.52;49.91
7335;BME280;3708;42.632;23.378;2023-04-25T08:40:44;93436.56;;;19.30;49.95
7335;BME280;3708;42.632;23.378;2023-04-25T08:43:13;93426.00;;;19.71;48.68
7335;BME280;3708;42.632;23.378;2023-04-25T08:45:41;93424.28;;;20.25;49.74
7335;BME280;3708;42.632;23.378;2023-04-25T08:48:11;93433.81;;;20.52;49.63
7335;BME280;3708;42.632;23.378;2023-04-25T08:50:39;93439.22;;;20.99;47.61
7335;BME280;3708;42.632;23.378;2023-04-25T08:53:09;93430.44;;;20.75;44.85
7335;BME280;3708;42.632;23.378;2023-04-25T08:55:41;93430.09;;;21.00;43.79
7335;BME280;3708;42.632;23.378;2023-04-25T08:58:09;93438.63;;;19.12;44.10
7335;BME280;3708;42.632;23.378;2023-04-25T09:00:37;93437.25;;;18.14;48.11
7335;BME280;3708;42.632;23.378;2023-04-25T09:03:04;93427.91;;;18.71;46.98
7335;BME280;3708;42.632;23.378;2023-04-25T09:05:33;93435.00;;;19.40;44.36
7335;BME280;3708;42.632;23.378;2023-04-25T09:08:00;93427.19;;;19.66;44.31
7335;BME280;3708;42.632;23.378;2023-04-25T09:10:27;93419.03;;;20.14;43.34
7335;BME280;3708;42.632;23.378;2023-04-25T09:13:02;93414.00;;;20.53;42.14
7335;BME280;3708;42.632;23.378;2023-04-25T09:15:30;93418.00;;;20.38;44.96
7335;BME280;3708;42.632;23.378;2023-04-25T09:17:57;93420.31;;;20.36;47.00
7335;BME280;3708;42.632;23.378;2023-04-25T09:20:24;93420.00;;;19.97;47.14
7335;BME280;3708;42.632;23.378;2023-04-25T09:23:03;93418.13;;;20.31;46.89
7335;BME280;3708;42.632;23.378;2023-04-25T09:25:34;93419.84;;;20.11;46.16
7335;BME280;3708;42.632;23.378;2023-04-25T09:28:04;93414.78;;;19.90;47.32
7335;BME280;3708;42.632;23.378;2023-04-25T09:30:33;93403.06;;;19.84;47.16
7335;BME280;3708;42.632;23.378;2023-04-25T09:33:04;93413.06;;;20.07;47.22
7335;BME280;3708;42.632;23.378;2023-04-25T09:35:35;93413.44;;;19.71;46.17
7335;BME280;3708;42.632;23.378;2023-04-25T09:38:08;93403.44;;;19.86;47.60
7335;BME280;3708;42.632;23.378;2023-04-25T09:40:39;93403.13;;;20.11;48.10
7335;BME280;3708;42.632;23.378;2023-04-25T09:43:09;93406.88;;;19.46;50.04
7335;BME280;3708;42.632;23.378;2023-04-25T09:45:41;93407.22;;;19.85;48.76
7335;BME280;3708;42.632;23.378;2023-04-25T09:48:11;93410.06;;;20.05;49.32
7335;BME280;3708;42.632;23.378;2023-04-25T09:50:39;93420.63;;;20.08;48.90
7335;BME280;3708;42.632;23.378;2023-04-25T09:53:07;93412.75;;;20.01;49.74
7335;BME280;3708;42.632;23.378;2023-04-25T09:55:34;93411.25;;;20.00;49.81
7335;BME280;3708;42.632;23.378;2023-04-25T09:58:04;93414.16;;;19.75;50.26
7335;BME280;3708;42.632;23.378;2023-04-25T10:00:32;93414.06;;;19.49;49.03
7335;BME280;3708;42.632;23.378;2023-04-25T10:03:01;93400.69;;;19.59;49.61
7335;BME280;3708;42.632;23.378;2023-04-25T10:05:30;93407.16;;;19.92;49.01
7335;BME280;3708;42.632;23.378;2023-04-25T10:07:59;93405.00;;;20.14;48.76
7335;BME280;3708;42.632;23.378;2023-04-25T10:10:30;93396.75;;;20.05;49.74
7335;BME280;3708;42.632;23.378;2023-04-25T10:13:03;93396.56;;;19.89;49.43
7335;BME280;3708;42.632;23.378;2023-04-25T10:15:33;93403.03;;;20.21;48.07
7335;BME280;3708;42.632;23.378;2023-04-25T10:18:01;93391.41;;;20.38;47.73
7335;BME280;3708;42.632;23.378;2023-04-25T10:20:29;93394.75;;;20.12;46.20
7335;BME280;3708;42.632;23.378;2023-04-25T10:23:00;93406.47;;;19.85;46.75
7335;BME280;3708;42.632;23.378;2023-04-25T10:25:31;93457.84;;;17.68;43.62
7335;BME280;3708;42.632;23.378;2023-04-25T10:27:59;93403.66;;;16.21;47.96
7335;BME280;3708;42.632;23.378;2023-04-25T10:30:27;93406.06;;;16.75;44.13
7335;BME280;3708;42.632;23.378;2023-04-25T10:32:54;93402.28;;;16.94;44.80
7335;BME280;3708;42.632;23.378;2023-04-25T10:35:25;93382.53;;;17.72;43.09
7335;BME280;3708;42.632;23.378;2023-04-25T10:38:03;93390.03;;;18.67;42.74
7335;BME280;3708;42.632;23.378;2023-04-25T10:40:32;93390.22;;;19.42;41.62
7335;BME280;3708;42.632;23.378;2023-04-25T10:45:59;93385.03;;;19.65;39.15
7335;BME280;3708;42.632;23.378;2023-04-25T10:48:27;93393.91;;;19.11;38.35
7335;BME280;3708;42.632;23.378;2023-04-25T10:51:07;93380.97;;;18.61;40.48
7335;BME280;3708;42.632;23.378;2023-04-25T10:53:34;93382.78;;;19.23;40.46
7335;BME280;3708;42.632;23.378;2023-04-25T10:56:09;93386.56;;;19.25;41.15
7335;BME280;3708;42.632;23.378;2023-04-25T10:58:36;93403.81;;;18.41;48.35
7335;BME280;3708;42.632;23.378;2023-04-25T11:01:03;93394.69;;;18.42;49.01
7335;BME280;3708;42.632;23.378;2023-04-25T11:03:30;93397.75;;;18.41;49.63
7335;BME280;3708;42.632;23.378;2023-04-25T11:05:58;93405.63;;;18.55;48.29
7335;BME280;3708;42.632;23.378;2023-04-25T11:08:36;93411.03;;;18.34;48.62
7335;BME280;3708;42.632;23.378;2023-04-25T11:11:06;93412.13;;;18.43;48.27
7335;BME280;3708;42.632;23.378;2023-04-25T11:13:34;93413.16;;;18.63;47.66
7335;BME280;3708;42.632;23.378;2023-04-25T11:16:01;93398.53;;;18.96;47.35
7335;BME280;3708;42.632;23.378;2023-04-25T11:18:28;93397.81;;;19.40;42.98
7335;BME280;3708;42.632;23.378;2023-04-25T11:20:55;93389.06;;;19.80;41.57
7335;BME280;3708;42.632;23.378;2023-04-25T11:23:21;93378.38;;;20.17;41.87
7335;BME280;3708;42.632;23.378;2023-04-25T11:25:49;93381.72;;;20.55;43.14
7335;BME280;3708;42.632;23.378;2023-04-25T11:28:22;93378.41;;;21.24;43.37
7335;BME280;3708;42.632;23.378;2023-04-25T11:30:49;93378.97;;;21.78;42.68
7335;BME280;3708;42.632;23.378;2023-04-25T11:33:16;93378.88;;;22.40;41.09
7335;BME280;3708;42.632;23.378;2023-04-25T11:35:43;93386.06;;;22.95;38.36
7335;BME280;3708;42.632;23.378;2023-04-25T11:38:10;93376.97;;;22.93;37.92
7335;BME280;3708;42.632;23.378;2023-04-25T11:40:37;93383.09;;;22.57;40.13
7335;BME280;3708;42.632;23.378;2023-04-25T11:43:03;93387.47;;;22.32;40.70
7335;BME280;3708;42.632;23.378;2023-04-25T11:45:32;93392.97;;;21.82;41.55
7335;BME280;3708;42.632;23.378;2023-04-25T11:48:01;93388.34;;;21.86;41.27
7335;BME280;3708;42.632;23.378;2023-04-25T11:50:29;93386.59;;;21.56;42.92
7335;BME280;3708;42.632;23.378;2023-04-25T11:52:56;93397.59;;;21.35;43.91
7335;BME280;3708;42.632;23.378;2023-04-25T11:55:23;93417.63;;;20.06;45.96
7335;BME280;3708;42.632;23.378;2023-04-25T11:57:50;93424.59;;;19.12;46.48
7335;BME280;3708;42.632;23.378;2023-04-25T12:00:18;93442.69;;;16.76;49.18
7335;BME280;3708;42.632;23.378;2023-04-25T12:02:51;93453.44;;;16.12;51.69
7335;BME280;3708;42.632;23.378;2023-04-25T12:05:18;93442.19;;;15.02;55.58
7335;BME280;3708;42.632;23.378;2023-04-25T12:07:46;93404.41;;;14.88;54.14
7335;BME280;3708;42.632;23.378;2023-04-25T12:10:14;93395.06;;;15.48;50.28
7335;BME280;3708;42.632;23.378;2023-04-25T12:12:43;93399.84;;;16.04;51.91
7335;BME280;3708;42.632;23.378;2023-04-25T12:15:11;93401.41;;;16.37;51.50
7335;BME280;3708;42.632;23.378;2023-04-25T12:17:41;93386.75;;;16.50;51.76
7335;BME280;3708;42.632;23.378;2023-04-25T12:20:12;93385.63;;;16.61;53.11
7335;BME280;3708;42.632;23.378;2023-04-25T12:22:41;93379.59;;;16.89;53.96
7335;BME280;3708;42.632;23.378;2023-04-25T12:25:10;93372.81;;;17.09;54.42
7335;BME280;3708;42.632;23.378;2023-04-25T12:27:37;93373.56;;;16.99;52.16
7335;BME280;3708;42.632;23.378;2023-04-25T12:30:06;93364.78;;;17.59;52.22
7335;BME280;3708;42.632;23.378;2023-04-25T12:32:33;93367.69;;;17.92;51.80
7335;BME280;3708;42.632;23.378;2023-04-25T12:35:01;93363.78;;;18.18;51.15
7335;BME280;3708;42.632;23.378;2023-04-25T12:37:30;93359.47;;;18.42;50.67
7335;BME280;3708;42.632;23.378;2023-04-25T12:39:56;93361.97;;;18.73;48.97
7335;BME280;3708;42.632;23.378;2023-04-25T12:42:23;93365.56;;;18.93;47.65
7335;BME280;3708;42.632;23.378;2023-04-25T12:44:50;93378.63;;;18.74;47.40
7335;BME280;3708;42.632;23.378;2023-04-25T12:47:17;93404.91;;;17.50;50.47
7335;BME280;3708;42.632;23.378;2023-04-25T12:49:44;93419.06;;;15.97;53.28
7335;BME280;3708;42.632;23.378;2023-04-25T12:52:10;93420.75;;;16.51;52.55
7335;BME280;3708;42.632;23.378;2023-04-25T12:54:39;93424.44;;;16.29;52.39
7335;BME280;3708;42.632;23.378;2023-04-25T12:57:05;93424.00;;;16.06;54.43
7335;BME280;3708;42.632;23.378;2023-04-25T12:59:32;93426.91;;;15.22;55.92
7335;BME280;3708;42.632;23.378;2023-04-25T13:01:59;93435.78;;;15.03;57.48
7335;BME280;3708;42.632;23.378;2023-04-25T13:04:27;93434.34;;;14.66;56.58
7335;BME280;3708;42.632;23.378;2023-04-25T13:06:55;93439.41;;;14.44;56.39
7335;BME280;3708;42.632;23.378;2023-04-25T13:09:21;93433.66;;;14.02;58.33
7335;BME280;3708;42.632;23.378;2023-04-25T13:11:50;93438.03;;;14.24;57.71
7335;BME280;3708;42.632;23.378;2023-04-25T13:14:16;93438.03;;;14.24;57.05